Humidity-temperature Sensor

Selected Measurement Type: Air Temperature

 
Air Temperature [°C]     6 entries per hour
Showing data from 4/21/2015 (00:00:00 Z) to 4/14/2015 (00:01:00 Z)
Previous Next [ Day | 3-Days | 7-Days ]
First Last
Prev [ Day | 3-Days | 7-Days ] Next
First Last

Start Time:     :
End Time:     :     
Time (in GMT) :00 :50 :40 :30 :20 :10
Previous Next [ Day | 3-Days | 7-Days ]
First Last
Prev [ Day | 3-Days | 7-Days ] Next
First Last


123 => good data
MM => data is determined as missing
-- => data not received/configured
Back to Top Back to Top
4/21/2015 00:00 to 23:10 27.85 28.00 27.98 28.11 28.09 28.08
4/20/2015 23:00 to 22:10 28.21 28.09 28.00 27.94 28.01 27.80
4/20/2015 22:00 to 21:10 27.91 28.22 27.89 27.90 27.68 27.72
4/20/2015 21:00 to 20:10 27.82 27.87 27.84 27.78 27.94 27.85
4/20/2015 20:00 to 19:10 27.84 27.90 27.81 27.78 27.79 27.92
4/20/2015 19:00 to 18:10 27.81 27.83 27.79 27.88 27.97 27.85
4/20/2015 18:00 to 17:10 27.90 27.83 27.90 27.90 27.74 28.00
4/20/2015 17:00 to 16:10 27.88 27.86 27.88 27.91 28.02 27.94
4/20/2015 16:00 to 15:10 27.96 27.81 27.97 27.86 27.91 27.78
4/20/2015 15:00 to 14:10 27.92 -- -- -- -- --
4/20/2015 14:00 to 13:10 -- -- -- -- -- --
4/20/2015 13:00 to 12:10 -- -- -- -- -- --
4/20/2015 12:00 to 11:10 -- -- -- -- -- --
4/20/2015 11:00 to 10:10 -- -- -- -- -- --
4/20/2015 10:00 to 9:10 -- -- -- -- -- --
4/20/2015 09:00 to 8:10 -- -- -- -- -- --
4/20/2015 08:00 to 7:10 -- -- -- -- -- --
4/20/2015 07:00 to 6:10 -- -- -- -- -- --
4/20/2015 06:00 to 5:10 -- -- -- -- -- --
4/20/2015 05:00 to 4:10 -- -- -- -- -- --
4/20/2015 04:00 to 3:10 -- -- -- -- -- --
4/20/2015 03:00 to 2:10 -- -- -- -- -- --
4/20/2015 02:00 to 1:10 -- -- -- -- -- --
4/20/2015 01:00 to 0:10 -- -- -- -- -- --
4/20/2015 00:00 to 23:10 -- -- -- -- -- --
4/19/2015 23:00 to 22:10 -- -- -- -- -- --
4/19/2015 22:00 to 21:10 -- -- -- -- -- --
4/19/2015 21:00 to 20:10 -- -- -- -- -- --
4/19/2015 20:00 to 19:10 -- -- -- -- -- --
4/19/2015 19:00 to 18:10 -- -- -- -- -- --
4/19/2015 18:00 to 17:10 -- -- -- -- -- --
4/19/2015 17:00 to 16:10 -- -- -- -- -- --
4/19/2015 16:00 to 15:10 28.21 27.99 28.10 27.79 27.84 27.71
4/19/2015 15:00 to 14:10 27.76 27.67 27.59 27.66 27.65 27.77
4/19/2015 14:00 to 13:10 27.72 27.53 27.53 27.48 27.48 27.52
4/19/2015 13:00 to 12:10 27.48 27.37 27.38 27.42 27.48 27.40
4/19/2015 12:00 to 11:10 27.58 27.39 27.49 27.53 27.41 27.60
4/19/2015 11:00 to 10:10 27.54 27.62 27.38 27.54 27.55 27.58
4/19/2015 10:00 to 9:10 27.60 27.51 27.68 27.72 27.65 27.76
4/19/2015 09:00 to 8:10 27.66 27.65 27.66 27.79 27.69 27.70
4/19/2015 08:00 to 7:10 27.72 27.63 27.86 27.80 27.78 27.80
4/19/2015 07:00 to 6:10 27.80 27.82 27.81 27.89 27.84 27.84
4/19/2015 06:00 to 5:10 27.66 27.79 27.71 27.79 27.82 27.72
4/19/2015 05:00 to 4:10 27.82 27.77 27.73 27.75 27.83 27.75
4/19/2015 04:00 to 3:10 27.75 27.81 27.74 27.74 27.77 27.83
4/19/2015 03:00 to 2:10 27.80 27.66 27.85 27.74 27.75 27.74
4/19/2015 02:00 to 1:10 27.68 27.74 27.74 27.81 27.74 27.77
4/19/2015 01:00 to 0:10 27.73 27.55 27.46 27.34 27.23 27.18
4/19/2015 00:00 to 23:10 27.12 27.19 27.19 27.33 27.27 27.06
4/18/2015 23:00 to 22:10 26.99 26.65 26.23 26.36 26.64 26.60
4/18/2015 22:00 to 21:10 26.49 26.56 26.51 26.36 25.91 25.85
4/18/2015 21:00 to 20:10 25.84 25.72 26.17 25.90 25.87 25.88
4/18/2015 20:00 to 19:10 25.83 26.16 26.20 25.58 25.77 25.79
4/18/2015 19:00 to 18:10 25.77 25.63 25.42 25.76 25.83 25.97
4/18/2015 18:00 to 17:10 26.41 26.47 26.72 27.40 27.44 27.25
4/18/2015 17:00 to 16:10 27.10 26.94 26.99 26.99 27.07 27.54
4/18/2015 16:00 to 15:10 27.60 27.42 27.64 27.60 27.55 27.16
4/18/2015 15:00 to 14:10 27.47 27.65 27.40 27.64 27.34 27.41
4/18/2015 14:00 to 13:10 27.58 27.30 27.33 27.24 27.29 27.21
4/18/2015 13:00 to 12:10 27.26 27.24 27.36 27.43 27.28 27.18
4/18/2015 12:00 to 11:10 27.20 27.28 27.31 27.24 27.24 27.20
4/18/2015 11:00 to 10:10 27.26 27.27 27.27 27.02 27.01 27.40
4/18/2015 10:00 to 9:10 27.47 27.38 27.38 27.54 27.34 27.43
4/18/2015 09:00 to 8:10 27.53 27.61 27.46 27.61 27.55 27.52
4/18/2015 08:00 to 7:10 27.56 27.61 27.71 27.64 27.75 27.72
4/18/2015 07:00 to 6:10 27.65 27.85 27.68 27.84 27.83 27.80
4/18/2015 06:00 to 5:10 27.75 27.89 27.83 27.92 27.85 27.94
4/18/2015 05:00 to 4:10 27.86 27.87 27.83 27.86 27.76 27.82
4/18/2015 04:00 to 3:10 27.92 27.84 27.87 27.88 27.84 27.86
4/18/2015 03:00 to 2:10 27.70 27.72 27.85 27.91 27.82 27.82
4/18/2015 02:00 to 1:10 27.78 27.87 27.75 27.86 27.91 28.02
4/18/2015 01:00 to 0:10 27.98 28.19 28.50 28.55 28.81 28.84
4/18/2015 00:00 to 23:10 28.81 28.83 28.74 28.89 28.73 28.64
4/17/2015 23:00 to 22:10 28.57 28.60 28.49 28.28 28.58 28.68
4/17/2015 22:00 to 21:10 28.61 28.46 28.46 28.67 28.53 28.31
4/17/2015 21:00 to 20:10 28.54 28.44 28.48 28.32 28.34 28.29
4/17/2015 20:00 to 19:10 28.45 28.39 28.49 28.33 28.53 28.19
4/17/2015 19:00 to 18:10 28.29 28.07 27.87 27.86 27.60 27.86
4/17/2015 18:00 to 17:10 28.31 28.32 28.41 28.40 28.50 28.25
4/17/2015 17:00 to 16:10 28.29 28.16 28.10 27.86 27.85 27.84
4/17/2015 16:00 to 15:10 27.82 27.71 27.74 27.79 27.67 27.79
4/17/2015 15:00 to 14:10 27.71 27.73 27.76 27.80 27.59 27.52
4/17/2015 14:00 to 13:10 27.36 26.64 25.69 25.06 25.07 24.79
4/17/2015 13:00 to 12:10 25.51 25.92 25.89 26.02 26.61 26.96
4/17/2015 12:00 to 11:10 26.66 26.40 26.03 25.70 25.60 25.54
4/17/2015 11:00 to 10:10 25.63 25.58 26.31 26.21 26.34 26.40
4/17/2015 10:00 to 9:10 26.42 26.64 26.69 26.76 26.78 27.01
4/17/2015 09:00 to 8:10 27.42 27.32 27.34 27.39 27.49 27.56
4/17/2015 08:00 to 7:10 27.65 27.60 27.58 27.39 27.49 27.59
4/17/2015 07:00 to 6:10 27.71 27.61 27.52 27.88 27.81 27.78
4/17/2015 06:00 to 5:10 27.85 27.84 27.81 27.78 27.83 27.77
4/17/2015 05:00 to 4:10 27.85 27.88 27.82 27.88 27.74 27.92
4/17/2015 04:00 to 3:10 27.85 27.80 27.86 27.92 27.90 27.74
4/17/2015 03:00 to 2:10 27.73 27.81 27.79 27.76 27.95 27.90
4/17/2015 02:00 to 1:10 27.82 27.86 27.81 27.71 27.83 27.81
4/17/2015 01:00 to 0:10 27.88 28.09 28.10 28.09 28.05 28.04
4/17/2015 00:00 to 23:10 28.23 28.24 28.18 28.25 28.20 27.97
4/16/2015 23:00 to 22:10 28.35 28.35 28.32 28.16 28.11 28.27
4/16/2015 22:00 to 21:10 28.17 28.20 28.18 28.14 28.15 28.07
4/16/2015 21:00 to 20:10 28.18 28.03 28.13 28.11 28.11 28.16
4/16/2015 20:00 to 19:10 28.09 28.11 28.13 28.06 27.94 27.91
4/16/2015 19:00 to 18:10 27.95 28.03 27.96 27.98 28.00 28.00
4/16/2015 18:00 to 17:10 27.93 28.05 28.01 27.99 28.09 27.98
4/16/2015 17:00 to 16:10 27.91 27.93 27.86 27.90 27.97 27.97
4/16/2015 16:00 to 15:10 27.82 28.02 27.98 28.09 27.79 27.93
4/16/2015 15:00 to 14:10 28.19 27.88 27.97 27.85 27.95 27.89
4/16/2015 14:00 to 13:10 27.64 27.83 27.74 27.59 27.61 27.38
4/16/2015 13:00 to 12:10 27.49 27.27 27.16 27.49 27.43 27.53
4/16/2015 12:00 to 11:10 27.52 27.62 27.51 27.55 27.53 27.48
4/16/2015 11:00 to 10:10 27.28 26.68 27.53 27.49 27.56 27.41
4/16/2015 10:00 to 9:10 26.62 27.01 27.37 27.53 27.58 27.64
4/16/2015 09:00 to 8:10 27.62 27.43 27.52 26.97 27.36 27.12
4/16/2015 08:00 to 7:10 27.09 27.18 27.06 27.18 27.14 27.22
4/16/2015 07:00 to 6:10 27.25 27.24 27.46 27.34 27.38 27.41
4/16/2015 06:00 to 5:10 27.26 27.39 27.36 27.29 27.10 27.12
4/16/2015 05:00 to 4:10 26.93 26.87 26.26 26.54 26.12 26.00
4/16/2015 04:00 to 3:10 25.74 25.90 26.08 26.21 26.24 26.62
4/16/2015 03:00 to 2:10 26.14 25.92 25.77 25.76 26.32 26.08
4/16/2015 02:00 to 1:10 26.22 26.18 26.56 26.23 26.07 26.16
4/16/2015 01:00 to 0:10 26.32 26.46 26.69 26.37 26.17 26.09
4/16/2015 00:00 to 23:10 26.28 27.71 27.72 27.85 27.59 27.82
4/15/2015 23:00 to 22:10 27.50 28.48 28.29 27.92 28.27 28.32
4/15/2015 22:00 to 21:10 28.31 28.23 28.20 28.29 28.30 28.24
4/15/2015 21:00 to 20:10 28.18 28.14 28.10 28.10 28.17 28.14
4/15/2015 20:00 to 19:10 28.23 28.05 28.08 27.94 27.94 28.08
4/15/2015 19:00 to 18:10 27.99 28.10 28.13 28.10 28.03 28.14
4/15/2015 18:00 to 17:10 28.18 28.06 28.05 27.86 27.92 27.96
4/15/2015 17:00 to 16:10 28.14 28.10 28.20 28.20 27.93 27.97
4/15/2015 16:00 to 15:10 28.02 27.89 27.99 27.87 27.87 27.96
4/15/2015 15:00 to 14:10 28.01 28.12 28.02 27.90 27.87 27.59
4/15/2015 14:00 to 13:10 27.64 27.47 27.65 27.43 27.38 27.31
4/15/2015 13:00 to 12:10 27.47 27.29 27.16 27.20 27.28 27.14
4/15/2015 12:00 to 11:10 26.93 27.14 27.21 27.23 27.19 27.09
4/15/2015 11:00 to 10:10 26.95 26.88 26.92 26.89 26.71 26.69
4/15/2015 10:00 to 9:10 26.83 26.99 26.98 27.09 26.94 26.79
4/15/2015 09:00 to 8:10 26.71 26.68 26.69 26.59 26.55 26.44
4/15/2015 08:00 to 7:10 26.52 26.56 26.43 26.31 26.15 26.07
4/15/2015 07:00 to 6:10 26.07 25.96 25.77 25.92 26.03 26.04
4/15/2015 06:00 to 5:10 25.94 25.86 25.87 25.87 25.71 25.96
4/15/2015 05:00 to 4:10 25.79 26.04 27.33 27.16 26.80 27.00
4/15/2015 04:00 to 3:10 26.82 26.28 26.23 26.17 26.28 26.37
4/15/2015 03:00 to 2:10 26.47 26.37 26.24 26.08 26.16 27.05
4/15/2015 02:00 to 1:10 27.65 27.72 27.84 27.86 27.85 27.92
4/15/2015 01:00 to 0:10 27.98 27.78 27.95 27.90 27.94 28.12
4/15/2015 00:00 to 23:10 28.42 28.38 28.26 28.15 28.39 28.37
4/14/2015 23:00 to 22:10 28.36 28.11 28.20 28.26 28.27 28.37
4/14/2015 22:00 to 21:10 28.19 28.01 28.28 27.97 27.86 27.99
4/14/2015 21:00 to 20:10 27.73 27.61 27.64 27.14 27.08 26.76
4/14/2015 20:00 to 19:10 26.82 26.73 26.52 26.30 26.19 26.28
4/14/2015 19:00 to 18:10 26.52 26.01 26.25 26.29 26.53 26.74
4/14/2015 18:00 to 17:10 26.68 26.16 25.94 26.05 26.84 27.05
4/14/2015 17:00 to 16:10 27.20 27.11 27.32 27.44 27.37 27.46
4/14/2015 16:00 to 15:10 27.37 27.30 27.13 27.13 27.11 27.07
4/14/2015 15:00 to 14:10 27.07 26.86 26.66 26.73 26.61 26.66
4/14/2015 14:00 to 13:10 26.54 26.45 26.28 26.01 25.52 25.46
4/14/2015 13:00 to 12:10 26.04 26.23 26.50 26.95 27.04 26.91
4/14/2015 12:00 to 11:10 26.87 26.76 26.74 26.68 26.81 27.11
4/14/2015 11:00 to 10:10 -- -- -- -- -- --
4/14/2015 10:00 to 9:10 27.40 27.56 27.55 27.55 27.57 27.55
4/14/2015 09:00 to 8:10 27.66 27.65 27.53 27.56 27.75 27.63
4/14/2015 08:00 to 7:10 27.52 27.66 27.75 27.66 27.76 27.65
4/14/2015 07:00 to 6:10 27.73 27.78 27.80 27.82 27.90 27.82
4/14/2015 06:00 to 5:10 27.76 27.79 27.84 27.90 27.84 27.79
4/14/2015 05:00 to 4:10 27.82 27.89 28.00 27.83 27.88 27.96
4/14/2015 04:00 to 3:10 27.84 27.86 28.00 27.92 27.93 27.94
4/14/2015 03:00 to 2:10 28.01 27.92 28.03 27.93 27.91 27.92
4/14/2015 02:00 to 1:10 27.91 27.86 27.99 27.94 27.92 28.16
4/14/2015 01:00 to 0:10 28.44 28.79 28.74 28.76 28.93 28.98